createdAt,value
2023-06-15T00:01:18.982Z,100177.77
2023-06-15T00:03:46.455Z,100175.02
2023-06-15T00:06:13.821Z,100175.12
2023-06-15T00:08:41.245Z,100177.16
2023-06-15T00:11:08.563Z,100174.58
2023-06-15T00:13:37.319Z,100181.50
2023-06-15T00:16:04.572Z,100183.44
2023-06-15T00:18:33.024Z,100184.14
2023-06-15T00:21:01.401Z,100180.69
2023-06-15T00:23:30.211Z,100179.24
2023-06-15T00:25:57.548Z,100175.29
2023-06-15T00:28:25.407Z,100171.77
2023-06-15T00:30:52.358Z,100173.60
2023-06-15T00:33:19.491Z,100174.30
2023-06-15T00:35:46.863Z,100166.73
2023-06-15T00:38:13.880Z,100165.30
2023-06-15T00:40:41.171Z,100161.02
2023-06-15T00:43:08.212Z,100161.02
2023-06-15T00:45:36.622Z,100157.45
2023-06-15T00:48:04.513Z,100153.98
2023-06-15T00:50:31.521Z,100152.09
2023-06-15T00:53:03.680Z,100154.80
2023-06-15T00:55:32.654Z,100148.81
2023-06-15T00:58:00.249Z,100146.20
2023-06-15T01:00:30.861Z,100146.59
2023-06-15T01:02:58.033Z,100143.05
2023-06-15T01:05:26.486Z,100139.08
2023-06-15T01:07:53.429Z,100139.25
2023-06-15T01:10:22.773Z,100138.68
2023-06-15T01:12:51.616Z,100141.46
2023-06-15T01:15:19.136Z,100140.61
2023-06-15T01:17:47.061Z,100146.01
2023-06-15T01:20:22.391Z,100145.92
2023-06-15T01:23:11.487Z,100142.58
2023-06-15T01:25:42.797Z,100141.45
2023-06-15T01:28:11.102Z,100135.58
2023-06-15T01:30:44.360Z,100138.34
2023-06-15T01:33:12.241Z,100142.73
2023-06-15T01:35:39.823Z,100140.96
2023-06-15T01:38:09.807Z,100138.48
2023-06-15T01:40:40.136Z,100141.95
2023-06-15T01:43:09.234Z,100145.75
2023-06-15T01:45:36.176Z,100145.83
2023-06-15T01:48:03.417Z,100150.00
2023-06-15T01:50:31.391Z,100146.81
2023-06-15T01:52:59.499Z,100145.00
2023-06-15T01:55:26.713Z,100145.10
2023-06-15T01:57:54.479Z,100144.27
2023-06-15T02:00:23.381Z,100143.77
2023-06-15T02:02:51.274Z,100142.38
2023-06-15T02:05:18.862Z,100142.59
2023-06-15T02:07:49.632Z,100142.59
2023-06-15T02:10:16.993Z,100145.89
2023-06-15T02:12:44.044Z,100145.36
2023-06-15T02:15:19.037Z,100143.91
2023-06-15T02:17:47.068Z,100142.80
2023-06-15T02:20:14.566Z,100144.98
2023-06-15T02:22:41.643Z,100143.92
2023-06-15T02:25:09.422Z,100150.70
2023-06-15T02:27:36.473Z,100151.05
2023-06-15T02:30:05.270Z,100157.30
2023-06-15T02:32:37.158Z,100159.32
2023-06-15T02:35:08.962Z,100155.52
2023-06-15T02:37:37.670Z,100160.92
2023-06-15T02:40:06.361Z,100157.15
2023-06-15T02:42:33.896Z,100155.91
2023-06-15T02:45:01.878Z,100153.93
2023-06-15T02:47:30.722Z,100152.41
2023-06-15T02:49:59.968Z,100150.39
2023-06-15T02:52:27.622Z,100143.48
2023-06-15T02:54:57.322Z,100149.21
2023-06-15T02:57:25.187Z,100152.52
2023-06-15T03:00:14.271Z,100146.41
2023-06-15T03:02:47.148Z,100143.16
2023-06-15T03:05:14.527Z,100144.09
2023-06-15T03:07:48.323Z,100142.93
2023-06-15T03:10:38.402Z,100149.04
2023-06-15T03:13:05.954Z,100148.38
2023-06-15T03:15:33.610Z,100147.38
2023-06-15T03:18:01.320Z,100147.65
2023-06-15T03:20:33.271Z,100151.02
2023-06-15T03:23:01.099Z,100147.98
2023-06-15T03:25:30.409Z,100147.19
2023-06-15T03:28:00.212Z,100150.28
2023-06-15T03:30:28.321Z,100149.94
2023-06-15T03:32:55.702Z,100146.23
2023-06-15T03:35:23.213Z,100144.30
2023-06-15T03:37:51.066Z,100142.81
2023-06-15T03:40:18.013Z,100146.52
2023-06-15T03:42:45.276Z,100142.10
2023-06-15T03:45:12.205Z,100143.48
2023-06-15T03:47:39.608Z,100140.23
2023-06-15T03:50:07.338Z,100139.48
2023-06-15T03:52:36.730Z,100142.38
2023-06-15T03:55:04.389Z,100141.27
2023-06-15T03:57:31.655Z,100144.74
2023-06-15T03:59:58.594Z,100146.08
2023-06-15T04:02:25.647Z,100148.67
2023-06-15T04:04:57.654Z,100143.77
2023-06-15T04:07:25.363Z,100145.65
2023-06-15T04:09:52.417Z,100144.65
2023-06-15T04:12:19.461Z,100146.29
2023-06-15T04:14:49.086Z,100143.59
2023-06-15T04:17:17.259Z,100146.89
2023-06-15T04:19:45.201Z,100144.75
2023-06-15T04:22:12.303Z,100146.71
2023-06-15T04:24:39.682Z,100144.55
2023-06-15T04:27:07.601Z,100143.88
2023-06-15T04:29:35.343Z,100150.15
2023-06-15T04:32:04.462Z,100151.87
2023-06-15T04:34:33.672Z,100154.58
2023-06-15T04:37:01.050Z,100154.61
2023-06-15T04:39:29.875Z,100157.23
2023-06-15T04:42:03.121Z,100157.33
2023-06-15T04:44:31.448Z,100155.84
2023-06-15T04:46:58.910Z,100156.15
2023-06-15T04:49:26.782Z,100157.13
2023-06-15T04:51:53.936Z,100160.98
2023-06-15T04:54:21.071Z,100165.16
2023-06-15T04:56:48.125Z,100163.69
2023-06-15T04:59:15.188Z,100165.09
2023-06-15T05:01:42.217Z,100164.25
2023-06-15T05:04:22.881Z,100166.41
2023-06-15T05:06:50.272Z,100168.66
2023-06-15T05:09:20.148Z,100169.29
2023-06-15T05:11:48.428Z,100164.59
2023-06-15T05:14:16.399Z,100168.42
2023-06-15T05:16:43.659Z,100165.67
2023-06-15T05:19:11.421Z,100164.41
2023-06-15T05:21:39.069Z,100159.85
2023-06-15T05:24:07.214Z,100161.88
2023-06-15T05:26:34.801Z,100161.29
2023-06-15T05:29:08.405Z,100157.69
2023-06-15T05:31:36.083Z,100154.92
2023-06-15T05:34:03.932Z,100158.02
2023-06-15T05:36:55.332Z,100157.69
2023-06-15T05:39:22.713Z,100153.42
2023-06-15T05:41:50.295Z,100155.58
2023-06-15T05:44:17.213Z,100144.78
2023-06-15T05:46:45.218Z,100143.19
2023-06-15T05:49:12.433Z,100146.60
2023-06-15T05:51:40.706Z,100144.80
2023-06-15T05:54:07.772Z,100142.52
2023-06-15T05:56:36.541Z,100144.50
2023-06-15T05:59:05.861Z,100141.91
2023-06-15T06:01:37.604Z,100140.29
2023-06-15T06:04:05.572Z,100139.08
2023-06-15T06:06:32.775Z,100140.97
2023-06-15T06:08:59.980Z,100136.73
2023-06-15T06:11:28.376Z,100134.27
2023-06-15T06:14:00.417Z,100135.48
2023-06-15T06:16:28.079Z,100135.52
2023-06-15T06:18:56.189Z,100138.91
2023-06-15T06:21:23.711Z,100141.95
2023-06-15T06:23:50.677Z,100143.19
2023-06-15T06:26:18.007Z,100142.79
2023-06-15T06:28:45.744Z,100145.83
2023-06-15T06:31:12.820Z,100145.99
2023-06-15T06:33:41.096Z,100147.92
2023-06-15T06:36:09.072Z,100150.19
2023-06-15T06:38:43.345Z,100146.42
2023-06-15T06:41:20.978Z,100143.23
2023-06-15T06:43:47.942Z,100149.38
2023-06-15T06:46:15.686Z,100149.58
2023-06-15T06:48:42.662Z,100154.91
2023-06-15T06:51:09.676Z,100154.67
2023-06-15T06:53:36.624Z,100153.48
2023-06-15T06:56:03.531Z,100155.42
2023-06-15T06:58:30.821Z,100154.67
2023-06-15T07:00:58.182Z,100157.36
2023-06-15T07:03:25.970Z,100154.64
2023-06-15T07:05:53.382Z,100152.20
2023-06-15T07:08:22.592Z,100152.27
2023-06-15T07:10:49.580Z,100148.98
2023-06-15T07:13:16.692Z,100152.05
2023-06-15T07:15:43.673Z,100153.98
2023-06-15T07:18:14.891Z,100150.41
2023-06-15T07:20:42.234Z,100153.25
2023-06-15T07:23:09.224Z,100154.44
2023-06-15T07:25:36.842Z,100155.96
2023-06-15T07:28:04.516Z,100158.89
2023-06-15T07:30:31.653Z,100157.77
2023-06-15T07:32:58.864Z,100155.82
2023-06-15T07:35:26.157Z,100153.87
2023-06-15T07:37:53.317Z,100153.83
2023-06-15T07:40:20.818Z,100146.47
2023-06-15T07:42:48.129Z,100144.96
2023-06-15T07:45:15.297Z,100146.23
2023-06-15T07:47:42.543Z,100148.89
2023-06-15T07:50:10.446Z,100151.70
2023-06-15T07:52:37.456Z,100145.55
2023-06-15T07:55:05.743Z,100145.79
2023-06-15T07:57:32.766Z,100146.54
2023-06-15T08:00:04.029Z,100144.98
2023-06-15T08:02:32.292Z,100149.29
2023-06-15T08:04:59.637Z,100143.61
2023-06-15T08:07:26.682Z,100143.16
2023-06-15T08:09:53.635Z,100141.35
2023-06-15T08:12:20.676Z,100142.23
2023-06-15T08:14:48.247Z,100144.61
2023-06-15T08:17:15.288Z,100148.71
2023-06-15T08:19:42.661Z,100147.98
2023-06-15T08:22:09.588Z,100147.13
2023-06-15T08:24:36.589Z,100144.71
2023-06-15T08:27:06.354Z,100144.30
2023-06-15T08:29:33.405Z,100141.91
2023-06-15T08:32:00.438Z,100135.66
2023-06-15T08:34:27.383Z,100135.81
2023-06-15T08:36:54.440Z,100135.23
2023-06-15T08:39:21.990Z,100131.41
2023-06-15T08:41:49.092Z,100129.77
2023-06-15T08:44:16.203Z,100132.84
2023-06-15T08:46:43.277Z,100127.02
2023-06-15T08:49:11.304Z,100122.84
2023-06-15T08:51:39.392Z,100123.02
2023-06-15T08:54:06.941Z,100122.75
2023-06-15T08:56:38.695Z,100118.20
2023-06-15T08:59:05.886Z,100114.30
2023-06-15T09:01:33.200Z,100116.80
2023-06-15T09:04:01.453Z,100121.70
2023-06-15T09:06:28.625Z,100121.72
2023-06-15T09:08:55.684Z,100114.34
2023-06-15T09:11:22.631Z,100108.16
2023-06-15T09:13:54.715Z,100105.46
2023-06-15T09:16:22.662Z,100111.61
2023-06-15T09:18:52.620Z,100118.82
2023-06-15T09:21:22.800Z,100123.58
2023-06-15T09:23:49.961Z,100122.41
2023-06-15T09:26:26.815Z,100120.59
2023-06-15T09:28:58.062Z,100122.98
2023-06-15T09:31:35.784Z,100126.43
2023-06-15T09:34:06.637Z,100125.44
2023-06-15T09:36:35.941Z,100129.40
2023-06-15T09:39:06.872Z,100131.41
2023-06-15T09:41:34.215Z,100130.61
2023-06-15T09:44:03.520Z,100130.23
2023-06-15T09:46:32.109Z,100130.92
2023-06-15T09:48:59.247Z,100130.07
2023-06-15T09:51:32.631Z,100128.68
2023-06-15T09:53:59.989Z,100130.39
2023-06-15T09:56:31.368Z,100132.02
2023-06-15T09:59:03.183Z,100130.86
2023-06-15T10:01:31.161Z,100137.77
2023-06-15T10:03:58.544Z,100137.96
2023-06-15T10:06:27.048Z,100134.39
2023-06-15T10:08:57.655Z,100132.31
2023-06-15T10:11:24.660Z,100130.88
2023-06-15T10:14:01.969Z,100130.73
2023-06-15T10:16:29.299Z,100126.69
2023-06-15T10:19:00.464Z,100122.40
2023-06-15T10:21:29.666Z,100123.89
2023-06-15T10:23:57.457Z,100118.55
2023-06-15T10:26:24.485Z,100116.73
2023-06-15T10:28:56.212Z,100119.66
2023-06-15T10:31:33.644Z,100119.28
2023-06-15T10:34:12.116Z,100113.37
2023-06-15T10:36:47.515Z,100116.70
2023-06-15T10:39:22.924Z,100116.35
2023-06-15T10:41:56.416Z,100116.56
2023-06-15T10:44:31.129Z,100117.98
2023-06-15T10:47:14.088Z,100110.14
2023-06-15T10:49:51.752Z,100113.56
2023-06-15T10:52:19.317Z,100110.09
2023-06-15T10:54:46.965Z,100105.73
2023-06-15T10:57:18.112Z,100107.21
2023-06-15T10:59:50.338Z,100107.30
2023-06-15T11:02:30.294Z,100102.77
2023-06-15T11:05:01.330Z,100100.40
2023-06-15T11:07:36.200Z,100101.84
2023-06-15T11:10:10.932Z,100097.86
2023-06-15T11:12:40.139Z,100095.98
2023-06-15T11:15:09.585Z,100095.77
2023-06-15T11:18:16.194Z,100096.36
2023-06-15T11:20:53.394Z,100092.50
2023-06-15T11:23:24.239Z,100092.20
2023-06-15T11:25:55.070Z,100090.42
2023-06-15T11:28:35.870Z,100093.59
2023-06-15T11:31:05.397Z,100088.66
2023-06-15T11:33:37.420Z,100090.19
2023-06-15T11:36:05.995Z,100088.15
2023-06-15T11:38:34.077Z,100093.03
2023-06-15T11:41:10.937Z,100091.48
2023-06-15T11:43:43.268Z,100092.39
2023-06-15T11:46:14.287Z,100092.70
2023-06-15T11:48:42.900Z,100090.90
2023-06-15T11:51:11.735Z,100085.86
2023-06-15T11:53:39.928Z,100085.42
2023-06-15T11:56:17.081Z,100086.64
2023-06-15T11:58:45.764Z,100079.44
2023-06-15T12:01:13.142Z,100078.66
2023-06-15T12:04:03.566Z,100074.38
2023-06-15T12:06:34.104Z,100072.95
2023-06-15T12:09:01.198Z,100074.37
2023-06-15T12:11:28.795Z,100075.70
2023-06-15T12:14:24.575Z,100078.64
2023-06-15T12:16:52.519Z,100080.16
2023-06-15T12:19:20.725Z,100073.63
2023-06-15T12:21:47.906Z,100075.93
2023-06-15T12:24:19.605Z,100075.34
2023-06-15T12:26:51.276Z,100071.77
2023-06-15T12:29:19.500Z,100072.03
2023-06-15T12:31:56.250Z,100070.67
2023-06-15T12:34:25.862Z,100068.13
2023-06-15T12:36:53.343Z,100067.29
2023-06-15T12:39:20.759Z,100068.18
2023-06-15T12:41:48.314Z,100064.52
2023-06-15T12:44:15.255Z,100062.56
2023-06-15T12:46:42.708Z,100062.88
2023-06-15T12:49:10.810Z,100053.94
2023-06-15T12:51:39.160Z,100053.90
2023-06-15T12:54:06.548Z,100049.70
2023-06-15T12:56:34.589Z,100051.56
2023-06-15T12:59:02.653Z,100052.89
2023-06-15T13:01:30.427Z,100046.55
2023-06-15T13:03:57.702Z,100045.77
2023-06-15T13:06:25.664Z,100045.04
2023-06-15T13:08:52.895Z,100044.98
2023-06-15T13:11:20.085Z,100045.27
2023-06-15T13:13:48.324Z,100040.04
2023-06-15T13:28:35.832Z,100024.99
2023-06-15T13:31:03.493Z,100020.41
2023-06-15T13:33:31.051Z,100018.26
2023-06-15T13:35:58.714Z,100018.52
2023-06-15T13:38:31.666Z,100020.02
2023-06-15T13:40:59.604Z,100017.16
2023-06-15T13:43:27.231Z,100017.06
2023-06-15T13:45:55.028Z,100014.02
2023-06-15T13:48:23.482Z,100014.10
2023-06-15T13:50:52.366Z,100013.56
2023-06-15T13:53:20.044Z,100012.21
2023-06-15T13:55:48.332Z,100013.23
2023-06-15T13:58:15.997Z,100012.50
2023-06-15T14:00:44.852Z,100008.52
2023-06-15T14:03:12.752Z,100006.84
2023-06-15T14:05:40.533Z,100004.12
2023-06-15T14:08:08.256Z,100001.98
2023-06-15T14:10:36.347Z,100001.67
2023-06-15T14:13:03.985Z,99998.81
2023-06-15T14:15:32.192Z,99994.17
2023-06-15T14:17:59.835Z,99994.23
2023-06-15T14:20:27.687Z,99990.75
2023-06-15T14:22:55.371Z,99988.73
2023-06-15T14:25:23.217Z,99986.63
2023-06-15T14:27:50.903Z,99989.67
2023-06-15T14:30:19.055Z,99987.38
2023-06-15T14:32:47.034Z,99987.38
2023-06-15T14:35:14.990Z,99988.05
2023-06-15T14:37:42.656Z,99986.85
2023-06-15T14:40:10.734Z,99982.96
2023-06-15T14:42:48.214Z,99975.14
2023-06-15T14:45:17.002Z,99973.13
2023-06-15T14:47:44.922Z,99974.84
2023-06-15T14:50:12.745Z,99974.01
2023-06-15T14:52:41.140Z,99973.95
2023-06-15T14:55:09.344Z,99969.70
2023-06-15T14:57:37.164Z,99969.13
2023-06-15T15:00:09.017Z,99968.62
2023-06-15T15:02:36.787Z,99976.64
2023-06-15T15:05:05.081Z,99983.79
2023-06-15T15:07:32.710Z,99987.05
2023-06-15T15:10:02.429Z,99992.66
2023-06-15T15:12:30.537Z,100001.85
2023-06-15T15:14:58.150Z,99999.11
2023-06-15T15:17:26.472Z,100006.15
2023-06-15T15:19:54.911Z,100013.90
2023-06-15T15:22:23.043Z,100026.98
2023-06-15T15:24:50.851Z,100022.77
2023-06-15T15:27:18.514Z,100028.20
2023-06-15T15:29:46.196Z,100054.70
2023-06-15T15:32:13.835Z,100071.69
2023-06-15T15:34:41.698Z,100079.70
2023-06-15T15:37:09.672Z,100082.70
2023-06-15T15:39:37.366Z,100081.19
2023-06-15T15:42:08.413Z,100086.05
2023-06-15T15:44:36.199Z,100087.59
2023-06-15T15:47:06.239Z,100081.20
2023-06-15T15:49:34.026Z,100079.86
2023-06-15T15:52:01.683Z,100092.00
2023-06-15T15:54:29.243Z,100085.08
2023-06-15T15:56:57.210Z,100088.02
2023-06-15T15:59:24.892Z,100089.21
2023-06-15T16:01:55.322Z,100082.03
2023-06-15T16:04:23.196Z,100078.27
2023-06-15T16:06:51.140Z,100075.11
2023-06-15T16:09:19.018Z,100074.66
2023-06-15T16:11:46.781Z,100070.13
2023-06-15T16:14:14.432Z,100068.20
2023-06-15T16:16:42.236Z,100073.14
2023-06-15T16:19:10.263Z,100073.22
2023-06-15T16:21:38.058Z,100071.20
2023-06-15T16:24:06.531Z,100074.39
2023-06-15T16:26:34.322Z,100074.42
2023-06-15T16:29:02.044Z,100075.50
2023-06-15T16:31:29.869Z,100077.00
2023-06-15T16:33:58.202Z,100078.91
2023-06-15T16:36:26.458Z,100076.05
2023-06-15T16:38:54.257Z,100076.05
2023-06-15T16:41:21.999Z,100071.58
2023-06-15T16:43:49.651Z,100070.61
2023-06-15T16:46:17.357Z,100072.33
2023-06-15T16:48:45.079Z,100075.48
2023-06-15T16:51:12.751Z,100079.77
2023-06-15T16:53:40.812Z,100083.14
2023-06-15T16:56:08.814Z,100088.73
2023-06-15T16:58:36.649Z,100095.81
2023-06-15T17:01:04.677Z,100096.86
2023-06-15T17:03:33.079Z,100100.98
2023-06-15T17:06:01.267Z,100101.56
2023-06-15T17:08:29.004Z,100100.25
2023-06-15T17:10:56.692Z,100098.42
2023-06-15T17:13:24.394Z,100100.58
2023-06-15T17:15:52.162Z,100098.94
2023-06-15T17:18:20.193Z,100100.20
2023-06-15T17:20:48.057Z,100099.70
2023-06-15T17:23:15.918Z,100099.83
2023-06-15T17:25:43.600Z,100094.21
2023-06-15T17:28:13.906Z,100091.66
2023-06-15T17:30:42.513Z,100091.91
2023-06-15T17:33:10.298Z,100096.09
2023-06-15T17:35:38.120Z,100094.10
2023-06-15T17:38:06.825Z,100096.27
2023-06-15T17:40:34.878Z,100097.85
2023-06-15T17:43:02.981Z,100103.86
2023-06-15T17:45:30.715Z,100103.38
2023-06-15T17:47:58.416Z,100106.05
2023-06-15T17:50:26.141Z,100107.25
2023-06-15T17:52:54.110Z,100110.23
2023-06-15T17:55:21.790Z,100106.77
2023-06-15T17:57:49.434Z,100115.53
2023-06-15T18:00:18.035Z,100118.36
2023-06-15T18:02:46.398Z,100117.80
2023-06-15T18:05:14.267Z,100123.91
2023-06-15T18:07:42.031Z,100129.27
2023-06-15T18:10:09.895Z,100126.60
2023-06-15T18:12:37.805Z,100128.71
2023-06-15T18:15:06.445Z,100133.90
2023-06-15T18:17:34.497Z,100134.00
2023-06-15T18:20:02.528Z,100142.38
2023-06-15T18:22:30.824Z,100147.70
2023-06-15T18:24:58.635Z,100148.67
2023-06-15T18:27:26.393Z,100155.73
2023-06-15T18:29:54.365Z,100162.52
2023-06-15T18:32:24.725Z,100168.14
2023-06-15T18:34:57.638Z,100168.52
2023-06-15T18:37:26.174Z,100171.37
2023-06-15T18:39:56.765Z,100171.45
2023-06-15T18:42:24.799Z,100174.43
2023-06-15T18:44:52.418Z,100172.74
2023-06-15T18:47:20.796Z,100174.70
2023-06-15T18:49:51.837Z,100177.41
2023-06-15T18:52:20.129Z,100179.11
2023-06-15T18:54:47.774Z,100178.70
2023-06-15T18:57:18.223Z,100180.95
2023-06-15T18:59:46.476Z,100179.56
2023-06-15T19:02:19.102Z,100179.98
2023-06-15T19:04:47.229Z,100182.59
2023-06-15T19:07:15.526Z,100183.88
2023-06-15T19:09:43.684Z,100185.70
2023-06-15T19:12:12.596Z,100187.03
2023-06-15T19:14:40.359Z,100183.29
2023-06-15T19:17:11.176Z,100183.18
2023-06-15T19:19:39.241Z,100180.61
2023-06-15T19:22:07.315Z,100185.48
2023-06-15T19:24:35.464Z,100191.86
2023-06-15T19:27:03.883Z,100191.09
2023-06-15T19:29:31.953Z,100195.59
2023-06-15T19:31:59.804Z,100197.17
2023-06-15T19:34:27.459Z,100194.80
2023-06-15T19:36:56.261Z,100191.89
2023-06-15T19:39:24.527Z,100188.95
2023-06-15T19:41:52.705Z,100189.42
2023-06-15T19:44:20.508Z,100187.80
2023-06-15T19:46:48.267Z,100186.83
2023-06-15T19:49:16.196Z,100188.92
2023-06-15T19:51:43.982Z,100187.55
2023-06-15T19:54:12.132Z,100191.36
2023-06-15T19:56:41.822Z,100191.65
2023-06-15T19:59:26.741Z,100191.43
2023-06-15T20:01:56.382Z,100190.42
2023-06-15T20:04:24.285Z,100188.25
2023-06-15T20:06:52.267Z,100183.52
2023-06-15T20:09:20.020Z,100188.69
2023-06-15T20:11:47.915Z,100187.58
2023-06-15T20:14:15.957Z,100188.56
2023-06-15T20:16:43.804Z,100189.58
2023-06-15T20:19:13.226Z,100185.01
2023-06-15T20:21:41.912Z,100186.73
2023-06-15T20:24:09.620Z,100190.60
2023-06-15T20:26:37.364Z,100189.52
2023-06-15T20:29:05.248Z,100188.06
2023-06-15T20:31:32.989Z,100190.68
2023-06-15T20:34:00.844Z,100187.67
2023-06-15T20:36:29.012Z,100186.80
2023-06-15T20:38:56.673Z,100186.30
2023-06-15T20:41:25.072Z,100181.31
2023-06-15T20:43:52.713Z,100180.64
2023-06-15T20:46:22.145Z,100181.94
2023-06-15T20:48:50.186Z,100187.34
2023-06-15T20:51:17.950Z,100185.71
2023-06-15T20:53:45.727Z,100187.46
2023-06-15T20:56:13.584Z,100184.20
2023-06-15T20:58:41.469Z,100183.64
2023-06-15T21:01:09.202Z,100184.23
2023-06-15T21:03:37.415Z,100183.94
2023-06-15T21:06:05.657Z,100186.48
2023-06-15T21:08:33.562Z,100189.04
2023-06-15T21:11:02.336Z,100188.73
2023-06-15T21:13:32.327Z,100185.42
2023-06-15T21:16:02.375Z,100184.48
2023-06-15T21:18:31.653Z,100185.15
2023-06-15T21:20:59.830Z,100182.39
2023-06-15T21:23:27.814Z,100184.48
2023-06-15T21:25:55.457Z,100180.98
2023-06-15T21:28:23.199Z,100182.73
2023-06-15T21:30:51.022Z,100176.50
2023-06-15T21:33:20.898Z,100175.41
2023-06-15T21:35:48.676Z,100171.36
2023-06-15T21:38:18.060Z,100168.58
2023-06-15T21:40:45.777Z,100163.27
2023-06-15T21:43:13.498Z,100165.94
2023-06-15T21:45:41.702Z,100165.60
2023-06-15T21:48:09.577Z,100162.98
2023-06-15T21:50:37.914Z,100159.29
2023-06-15T21:53:05.590Z,100154.86
2023-06-15T21:55:33.333Z,100157.63
2023-06-15T21:58:01.028Z,100150.17
2023-06-15T22:00:29.174Z,100152.20
2023-06-15T22:02:57.393Z,100151.44
2023-06-15T22:05:25.503Z,100154.21
2023-06-15T22:07:55.171Z,100157.17
2023-06-15T22:10:23.037Z,100159.79
2023-06-15T22:12:50.958Z,100156.02
2023-06-15T22:15:18.637Z,100160.84
2023-06-15T22:17:46.290Z,100159.83
2023-06-15T22:20:15.631Z,100157.80
2023-06-15T22:22:43.415Z,100157.73
2023-06-15T22:25:11.681Z,100164.05
2023-06-15T22:27:39.428Z,100164.89
2023-06-15T22:30:08.643Z,100166.77
2023-06-15T22:32:37.003Z,100161.55
2023-06-15T22:35:05.260Z,100167.08
2023-06-15T22:37:32.910Z,100163.85
2023-06-15T22:40:01.001Z,100158.84
2023-06-15T22:42:28.636Z,100155.85
2023-06-15T22:44:57.834Z,100152.87
2023-06-15T22:47:27.236Z,100152.89
2023-06-15T22:49:55.512Z,100155.99
2023-06-15T22:52:23.706Z,100157.55
2023-06-15T22:54:51.456Z,100157.34
2023-06-15T22:57:19.568Z,100159.61
2023-06-15T22:59:47.202Z,100157.66
2023-06-15T23:02:17.638Z,100155.11
2023-06-15T23:04:46.149Z,100159.38
2023-06-15T23:07:14.375Z,100159.80
2023-06-15T23:09:42.030Z,100162.91
2023-06-15T23:12:13.589Z,100161.00
2023-06-15T23:14:41.615Z,100156.73
2023-06-15T23:17:09.442Z,100155.58
2023-06-15T23:19:37.903Z,100151.64
2023-06-15T23:22:06.610Z,100146.14
2023-06-15T23:24:34.804Z,100145.73
2023-06-15T23:27:04.369Z,100145.73
2023-06-15T23:29:35.439Z,100146.15
2023-06-15T23:32:03.094Z,100150.15
2023-06-15T23:34:30.950Z,100148.24
2023-06-15T23:36:58.604Z,100146.96
2023-06-15T23:39:26.265Z,100146.70
2023-06-15T23:41:54.142Z,100145.02
2023-06-15T23:44:21.797Z,100144.19
2023-06-15T23:46:49.502Z,100138.55
2023-06-15T23:49:17.226Z,100143.16
2023-06-15T23:51:44.876Z,100147.50
2023-06-15T23:54:13.688Z,100149.08
2023-06-15T23:56:41.842Z,100149.06
2023-06-15T23:59:09.824Z,100150.03
